createdAt,value
2022-09-20T00:01:25.019Z,0.22
2022-09-20T00:03:56.460Z,0.30
2022-09-20T00:06:30.574Z,0.68
2022-09-20T00:08:59.573Z,0.32
2022-09-20T00:11:30.348Z,0.60
2022-09-20T00:14:00.493Z,0.30
2022-09-20T00:16:31.790Z,0.45
2022-09-20T00:19:02.771Z,0.30
2022-09-20T00:23:58.955Z,0.32
2022-09-20T00:26:28.313Z,0.38
2022-09-20T00:28:57.633Z,0.22
2022-09-20T00:31:24.466Z,0.20
2022-09-20T00:34:14.787Z,0.30
2022-09-20T00:36:41.909Z,0.50
2022-09-20T00:39:13.360Z,0.30
2022-09-20T00:41:40.178Z,0.40
2022-09-20T00:44:40.673Z,0.50
2022-09-20T00:47:21.784Z,0.40
2022-09-20T00:49:53.302Z,0.40
2022-09-20T00:52:20.602Z,0.35
2022-09-20T00:54:48.579Z,0.30
2022-09-20T00:57:15.653Z,0.75
2022-09-20T00:59:47.992Z,0.32
2022-09-20T01:02:25.848Z,0.47
2022-09-20T01:04:53.075Z,0.40
2022-09-20T01:07:22.489Z,0.50
2022-09-20T01:09:50.498Z,0.47
2022-09-20T01:12:23.445Z,0.40
2022-09-20T01:14:53.244Z,0.40
2022-09-20T01:17:25.254Z,0.43
2022-09-20T01:20:04.967Z,0.40
2022-09-20T01:23:29.165Z,0.30
2022-09-20T01:26:17.012Z,0.40
2022-09-20T01:28:50.547Z,0.40
2022-09-20T01:31:34.064Z,0.35
2022-09-20T01:34:21.302Z,0.25
2022-09-20T01:37:19.245Z,0.52
2022-09-20T01:40:13.299Z,0.30
2022-09-20T01:42:56.257Z,0.40
2022-09-20T01:45:32.400Z,0.40
2022-09-20T01:48:39.468Z,0.32
2022-09-20T01:51:43.107Z,0.47
2022-09-20T01:54:58.299Z,0.40
2022-09-20T01:57:52.192Z,0.32
2022-09-20T02:00:31.814Z,0.50
2022-09-20T02:03:45.714Z,0.40
2022-09-20T02:06:39.463Z,0.20
2022-09-20T02:09:39.331Z,0.50
2022-09-20T02:12:39.829Z,0.35
2022-09-20T02:15:36.402Z,0.30
2022-09-20T02:18:42.887Z,0.30
2022-09-20T02:21:25.676Z,0.40
2022-09-20T02:24:20.960Z,0.55
2022-09-20T02:27:17.894Z,0.32
2022-09-20T02:30:32.497Z,0.30
2022-09-20T02:33:01.988Z,0.40
2022-09-20T02:35:47.181Z,0.30
2022-09-20T02:38:46.773Z,0.20
2022-09-20T02:41:57.367Z,0.30
2022-09-20T02:44:39.183Z,0.30
2022-09-20T02:47:14.858Z,0.40
2022-09-20T02:50:25.053Z,0.40
2022-09-20T02:53:11.522Z,0.35
2022-09-20T02:56:07.193Z,0.52
2022-09-20T02:59:03.421Z,0.30
2022-09-20T03:02:06.039Z,0.50
2022-09-20T03:05:19.401Z,0.50
2022-09-20T03:08:24.409Z,0.50
2022-09-20T03:11:31.755Z,1.45
2022-09-20T03:14:37.749Z,0.50
2022-09-20T03:17:56.457Z,0.40
2022-09-20T03:20:31.920Z,0.70
2022-09-20T03:23:26.791Z,0.40
2022-09-20T03:26:23.473Z,0.47
2022-09-20T03:29:08.661Z,0.30
2022-09-20T03:32:28.304Z,0.68
2022-09-20T03:35:29.343Z,0.40
2022-09-20T03:38:08.267Z,0.60
2022-09-20T03:41:09.034Z,0.40
2022-09-20T03:43:53.993Z,0.40
2022-09-20T03:46:29.080Z,0.80
2022-09-20T03:49:04.575Z,0.90
2022-09-20T03:52:17.953Z,0.68
2022-09-20T03:54:47.428Z,0.73
2022-09-20T03:57:39.453Z,0.98
2022-09-20T04:00:54.203Z,0.57
2022-09-20T04:04:05.769Z,0.50
2022-09-20T04:07:12.999Z,0.60
2022-09-20T04:10:01.130Z,0.70
2022-09-20T04:13:03.342Z,0.88
2022-09-20T04:16:06.504Z,0.60
2022-09-20T04:18:52.695Z,0.80
2022-09-20T04:21:48.547Z,0.60
2022-09-20T04:25:13.352Z,0.95
2022-09-20T04:28:05.895Z,0.55
2022-09-20T04:30:44.096Z,0.90
2022-09-20T04:33:28.296Z,0.68
2022-09-20T04:36:37.528Z,0.70
2022-09-20T04:39:07.406Z,0.60
2022-09-20T04:41:49.811Z,0.57
2022-09-20T04:44:35.405Z,0.85
2022-09-20T04:47:59.158Z,0.90
2022-09-20T04:50:52.357Z,0.60
2022-09-20T04:54:21.510Z,1.02
2022-09-20T04:57:25.190Z,0.90
2022-09-20T05:00:11.508Z,0.70
2022-09-20T05:03:27.694Z,0.77
2022-09-20T05:07:00.461Z,0.77
2022-09-20T05:10:07.282Z,0.70
2022-09-20T05:13:13.901Z,0.98
2022-09-20T05:16:08.613Z,0.65
2022-09-20T05:18:44.875Z,0.90
2022-09-20T05:21:47.676Z,0.73
2022-09-20T05:24:44.118Z,0.80
2022-09-20T05:27:52.996Z,0.68
2022-09-20T05:30:31.291Z,0.70
2022-09-20T05:33:18.141Z,0.85
2022-09-20T05:36:18.152Z,0.77
2022-09-20T05:38:58.024Z,0.95
2022-09-20T05:41:58.338Z,0.90
2022-09-20T05:44:47.532Z,0.70
2022-09-20T05:47:50.278Z,0.80
2022-09-20T05:51:01.879Z,0.77
2022-09-20T05:54:09.187Z,0.90
2022-09-20T05:57:25.594Z,1.20
2022-09-20T06:00:12.359Z,0.63
2022-09-20T06:03:27.892Z,0.85
2022-09-20T06:06:17.900Z,1.00
2022-09-20T06:09:29.216Z,0.90
2022-09-20T06:12:20.378Z,0.90
2022-09-20T06:15:01.823Z,0.77
2022-09-20T06:17:37.747Z,0.68
2022-09-20T06:20:45.782Z,0.80
2022-09-20T06:23:13.003Z,1.60
2022-09-20T06:25:43.607Z,0.93
2022-09-20T06:28:22.509Z,0.93
2022-09-20T06:30:52.882Z,0.90
2022-09-20T06:33:24.767Z,0.70
2022-09-20T06:36:34.782Z,0.77
2022-09-20T06:39:23.280Z,0.70
2022-09-20T06:41:51.392Z,0.70
2022-09-20T06:44:18.273Z,1.00
2022-09-20T06:46:45.081Z,1.55
2022-09-20T06:49:11.990Z,1.05
2022-09-20T06:51:40.097Z,1.05
2022-09-20T06:54:14.995Z,0.80
2022-09-20T06:56:44.899Z,1.48
2022-09-20T06:59:12.833Z,1.00
2022-09-20T07:01:40.291Z,1.33
2022-09-20T07:04:07.436Z,0.90
2022-09-20T07:06:34.558Z,0.80
2022-09-20T07:09:01.661Z,1.23
2022-09-20T07:11:28.538Z,1.40
2022-09-20T07:13:58.229Z,1.67
2022-09-20T07:16:26.404Z,1.58
2022-09-20T07:18:53.375Z,1.30
2022-09-20T07:21:21.911Z,1.02
2022-09-20T07:23:49.133Z,1.38
2022-09-20T07:26:22.031Z,1.67
2022-09-20T07:28:49.853Z,1.02
2022-09-20T07:31:19.260Z,1.20
2022-09-20T07:33:46.568Z,1.33
2022-09-20T07:36:14.009Z,1.90
2022-09-20T07:38:43.103Z,1.98
2022-09-20T07:41:10.669Z,1.25
2022-09-20T07:43:37.633Z,1.27
2022-09-20T07:46:04.891Z,1.40
2022-09-20T07:48:35.222Z,1.27
2022-09-20T07:51:11.662Z,1.20
2022-09-20T07:53:40.156Z,1.00
2022-09-20T07:56:11.599Z,1.48
2022-09-20T07:58:39.426Z,1.55
2022-09-20T08:01:10.542Z,1.40
2022-09-20T08:03:37.823Z,1.10
2022-09-20T08:06:16.442Z,1.48
2022-09-20T08:08:43.520Z,1.50
2022-09-20T08:11:17.222Z,1.48
2022-09-20T08:14:06.923Z,1.63
2022-09-20T08:16:47.377Z,1.65
2022-09-20T08:19:23.263Z,2.13
2022-09-20T08:21:53.806Z,1.90
2022-09-20T08:24:21.455Z,1.60
2022-09-20T08:26:48.742Z,1.98
2022-09-20T08:29:15.556Z,1.55
2022-09-20T08:31:42.765Z,1.85
2022-09-20T08:34:12.923Z,1.70
2022-09-20T08:36:45.392Z,1.98
2022-09-20T08:42:42.043Z,1.95
2022-09-20T08:48:02.101Z,1.70
2022-09-20T08:50:29.144Z,2.25
2022-09-20T08:53:04.878Z,1.90
2022-09-20T08:55:36.817Z,2.35
2022-09-20T08:58:08.405Z,2.97
2022-09-20T09:00:38.442Z,3.85
2022-09-20T09:03:12.184Z,3.67
2022-09-20T09:05:53.995Z,3.15
2022-09-20T09:08:27.193Z,3.08
2022-09-20T09:10:57.274Z,2.50
2022-09-20T09:13:32.869Z,2.90
2022-09-20T09:16:06.848Z,2.50
2022-09-20T09:18:39.761Z,2.85
2022-09-20T09:21:10.434Z,2.53
2022-09-20T09:23:51.878Z,2.70
2022-09-20T09:26:25.816Z,2.85
2022-09-20T09:29:17.870Z,2.47
2022-09-20T09:31:49.115Z,2.53
2022-09-20T09:34:30.586Z,2.72
2022-09-20T09:36:58.388Z,2.65
2022-09-20T09:39:37.967Z,2.50
2022-09-20T09:42:23.717Z,2.40
2022-09-20T09:44:50.551Z,2.47
2022-09-20T09:47:29.159Z,2.78
2022-09-20T09:50:01.866Z,2.47
2022-09-20T09:52:33.343Z,2.95
2022-09-20T09:55:05.638Z,2.35
2022-09-20T09:57:58.545Z,2.70
2022-09-20T10:00:27.316Z,2.08
2022-09-20T10:03:31.820Z,2.03
2022-09-20T10:07:01.972Z,3.10
2022-09-20T10:09:53.589Z,1.63
2022-09-20T10:12:35.132Z,1.23
2022-09-20T10:15:39.828Z,1.20
2022-09-20T10:18:34.520Z,1.33
2022-09-20T10:21:28.568Z,1.10
2022-09-20T10:24:22.968Z,1.00
2022-09-20T10:27:05.786Z,1.10
2022-09-20T10:30:11.372Z,0.98
2022-09-20T10:33:24.646Z,1.00
2022-09-20T10:36:20.926Z,1.08
2022-09-20T10:39:00.231Z,1.08
2022-09-20T10:42:14.303Z,1.08
2022-09-20T10:44:57.707Z,1.27
2022-09-20T10:47:41.650Z,1.10
2022-09-20T10:50:33.971Z,1.40
2022-09-20T10:53:23.055Z,1.10
2022-09-20T10:56:04.581Z,0.95
2022-09-20T10:58:46.623Z,1.15
2022-09-20T11:01:58.554Z,0.82
2022-09-20T11:05:18.615Z,1.00
2022-09-20T11:08:03.720Z,0.50
2022-09-20T11:10:43.716Z,1.15
2022-09-20T11:13:45.746Z,1.00
2022-09-20T11:16:29.364Z,1.10
2022-09-20T11:19:33.987Z,0.98
2022-09-20T11:22:17.199Z,1.10
2022-09-20T11:25:18.041Z,1.10
2022-09-20T11:27:58.089Z,1.02
2022-09-20T11:30:25.472Z,1.35
2022-09-20T11:33:27.616Z,0.77
2022-09-20T11:36:11.749Z,1.02
2022-09-20T11:38:56.972Z,0.90
2022-09-20T11:41:31.711Z,0.93
2022-09-20T11:44:14.201Z,1.40
2022-09-20T11:46:52.316Z,0.88
2022-09-20T11:49:49.644Z,0.80
2022-09-20T11:52:30.179Z,1.50
2022-09-20T11:55:38.558Z,1.00
2022-09-20T11:58:13.581Z,1.25
2022-09-20T12:00:45.015Z,1.00
2022-09-20T12:03:44.265Z,0.93
2022-09-20T12:06:34.384Z,0.70
2022-09-20T12:09:30.623Z,0.90
2022-09-20T12:11:59.532Z,0.80
2022-09-20T12:14:32.274Z,0.60
2022-09-20T12:16:59.127Z,1.25
2022-09-20T12:19:34.743Z,0.75
2022-09-20T12:22:01.823Z,0.95
2022-09-20T12:24:33.911Z,1.10
2022-09-20T12:27:22.459Z,0.60
2022-09-20T12:30:21.705Z,0.60
2022-09-20T12:33:01.089Z,0.80
2022-09-20T12:35:36.984Z,0.88
2022-09-20T12:38:26.629Z,0.70
2022-09-20T12:41:15.056Z,0.90
2022-09-20T12:44:06.550Z,0.80
2022-09-20T12:46:49.627Z,0.60
2022-09-20T12:49:48.156Z,0.88
2022-09-20T12:52:57.899Z,0.85
2022-09-20T12:55:27.616Z,0.70
2022-09-20T12:58:15.418Z,0.77
2022-09-20T13:00:48.613Z,0.65
2022-09-20T13:03:15.358Z,0.80
2022-09-20T13:05:52.592Z,0.73
2022-09-20T13:08:31.500Z,0.90
2022-09-20T13:11:07.249Z,0.70
2022-09-20T13:13:51.616Z,0.77
2022-09-20T13:16:37.676Z,0.75
2022-09-20T13:19:18.266Z,0.50
2022-09-20T13:22:19.018Z,0.70
2022-09-20T13:24:51.724Z,1.27
2022-09-20T13:27:25.973Z,0.70
2022-09-20T13:29:53.478Z,0.60
2022-09-20T13:32:30.193Z,0.80
2022-09-20T13:35:24.156Z,0.60
2022-09-20T13:37:57.157Z,0.57
2022-09-20T13:40:47.780Z,0.65
2022-09-20T13:43:40.518Z,0.70
2022-09-20T13:46:12.665Z,0.98
2022-09-20T13:48:40.311Z,1.38
2022-09-20T13:51:19.888Z,0.63
2022-09-20T13:53:49.232Z,0.90
2022-09-20T13:56:29.973Z,0.55
2022-09-20T13:59:00.978Z,0.95
2022-09-20T14:01:34.681Z,0.52
2022-09-20T14:04:09.115Z,0.73
2022-09-20T14:06:36.607Z,0.63
2022-09-20T14:09:11.301Z,0.90
2022-09-20T14:11:40.054Z,0.80
2022-09-20T14:14:09.657Z,0.70
2022-09-20T14:16:45.171Z,0.82
2022-09-20T14:19:16.672Z,0.75
2022-09-20T14:21:44.262Z,0.68
2022-09-20T14:24:25.990Z,0.90
2022-09-20T14:27:22.037Z,0.77
2022-09-20T14:29:52.538Z,0.90
2022-09-20T14:32:19.269Z,0.80
2022-09-20T14:35:04.997Z,0.63
2022-09-20T14:38:10.263Z,0.90
2022-09-20T14:40:47.173Z,0.68
2022-09-20T14:43:31.316Z,0.57
2022-09-20T14:46:03.278Z,0.52
2022-09-20T14:48:45.321Z,0.52
2022-09-20T14:51:23.389Z,0.50
2022-09-20T14:54:13.601Z,0.55
2022-09-20T14:59:18.899Z,0.60
2022-09-20T15:02:00.727Z,0.88
2022-09-20T15:04:28.669Z,0.60
2022-09-20T15:07:00.140Z,0.80
2022-09-20T15:09:27.288Z,1.00
2022-09-20T15:12:16.325Z,0.68
2022-09-20T15:14:43.296Z,1.13
2022-09-20T15:17:21.726Z,0.60
2022-09-20T15:19:50.071Z,0.50
2022-09-20T15:22:16.999Z,0.57
2022-09-20T15:24:44.089Z,0.82
2022-09-20T15:27:14.112Z,0.68
2022-09-20T15:29:40.943Z,1.05
2022-09-20T15:32:11.014Z,1.10
2022-09-20T15:34:38.231Z,1.90
2022-09-20T15:37:05.068Z,1.10
2022-09-20T15:39:31.904Z,1.58
2022-09-20T15:41:58.647Z,2.28
2022-09-20T15:44:25.670Z,1.50
2022-09-20T15:46:53.333Z,1.58
2022-09-20T15:49:21.636Z,1.33
2022-09-20T15:51:48.543Z,1.65
2022-09-20T15:54:15.672Z,1.20
2022-09-20T15:56:42.491Z,1.27
2022-09-20T15:59:11.740Z,0.90
2022-09-20T16:01:44.664Z,0.85
2022-09-20T16:04:20.611Z,0.80
2022-09-20T16:06:49.996Z,0.82
2022-09-20T16:09:18.260Z,0.50
2022-09-20T16:11:45.829Z,0.75
2022-09-20T16:14:12.977Z,1.02
2022-09-20T16:16:40.851Z,1.05
2022-09-20T16:19:23.720Z,0.50
2022-09-20T16:21:59.142Z,0.80
2022-09-20T16:24:33.946Z,0.75
2022-09-20T16:27:07.055Z,0.98
2022-09-20T16:29:34.528Z,0.90
2022-09-20T16:32:03.495Z,1.20
2022-09-20T16:34:34.417Z,0.80
2022-09-20T16:39:31.658Z,0.82
2022-09-20T16:42:03.562Z,0.70
2022-09-20T16:44:36.202Z,0.55
2022-09-20T16:47:08.817Z,0.50
2022-09-20T16:49:36.752Z,0.80
2022-09-20T16:52:09.193Z,0.60
2022-09-20T16:54:36.331Z,0.47
2022-09-20T16:57:03.630Z,0.47
2022-09-20T16:59:31.065Z,0.93
2022-09-20T17:01:57.956Z,0.80
2022-09-20T17:04:24.796Z,0.63
2022-09-20T17:06:52.148Z,0.60
2022-09-20T17:09:19.114Z,0.60
2022-09-20T17:11:50.078Z,0.60
2022-09-20T17:14:20.355Z,0.90
2022-09-20T17:16:48.047Z,0.47
2022-09-20T17:19:19.171Z,0.50
2022-09-20T17:21:50.107Z,0.70
2022-09-20T17:24:22.542Z,0.47
2022-09-20T17:26:50.790Z,0.90
2022-09-20T17:29:20.239Z,0.90
2022-09-20T17:31:54.937Z,0.77
2022-09-20T17:34:22.897Z,0.95
2022-09-20T17:36:50.740Z,0.95
2022-09-20T17:39:18.551Z,0.82
2022-09-20T17:41:50.615Z,0.68
2022-09-20T17:44:17.752Z,0.70
2022-09-20T17:46:47.971Z,0.90
2022-09-20T17:49:20.862Z,0.85
2022-09-20T17:51:53.976Z,1.40
2022-09-20T17:54:22.359Z,1.13
2022-09-20T17:56:52.200Z,1.35
2022-09-20T17:59:20.594Z,1.00
2022-09-20T18:01:50.535Z,2.03
2022-09-20T18:04:18.214Z,1.90
2022-09-20T18:06:51.116Z,1.55
2022-09-20T18:09:22.186Z,0.98
2022-09-20T18:11:52.788Z,0.93
2022-09-20T18:14:28.324Z,1.00
2022-09-20T18:17:00.748Z,0.80
2022-09-20T18:19:32.834Z,0.73
2022-09-20T18:22:03.329Z,0.88
2022-09-20T18:24:30.526Z,1.88
2022-09-20T18:26:57.417Z,0.70
2022-09-20T18:29:25.062Z,0.80
2022-09-20T18:31:54.620Z,0.77
2022-09-20T18:34:24.774Z,1.20
2022-09-20T18:36:55.914Z,1.13
2022-09-20T18:39:24.867Z,0.90
2022-09-20T18:41:52.985Z,0.70
2022-09-20T18:44:21.593Z,1.02
2022-09-20T18:46:53.352Z,0.70
2022-09-20T18:49:21.634Z,1.50
2022-09-20T18:51:49.820Z,1.42
2022-09-20T18:54:17.853Z,1.17
2022-09-20T18:56:48.699Z,0.80
2022-09-20T19:01:58.597Z,0.80
2022-09-20T19:04:37.409Z,1.15
2022-09-20T19:07:22.040Z,1.10
2022-09-20T19:10:03.836Z,1.20
2022-09-20T19:13:12.911Z,1.08
2022-09-20T19:16:02.281Z,0.93
2022-09-20T19:19:09.072Z,0.82
2022-09-20T19:21:51.963Z,1.20
2022-09-20T19:24:46.217Z,1.58
2022-09-20T19:27:14.644Z,0.80
2022-09-20T19:29:42.195Z,0.80
2022-09-20T19:32:18.745Z,0.80
2022-09-20T19:34:46.800Z,0.63
2022-09-20T19:38:17.788Z,1.00
2022-09-20T19:41:20.554Z,0.60
2022-09-20T19:44:21.394Z,1.10
2022-09-20T19:47:12.050Z,0.60
2022-09-20T19:50:15.813Z,0.93
2022-09-20T19:52:44.176Z,0.68
2022-09-20T19:55:14.710Z,1.02
2022-09-20T19:57:47.230Z,0.65
2022-09-20T20:00:20.725Z,1.08
2022-09-20T20:02:48.635Z,1.17
2022-09-20T20:05:19.558Z,4.47
2022-09-20T20:10:38.467Z,3.00
2022-09-20T20:14:01.615Z,1.88
2022-09-20T20:16:58.387Z,0.98
2022-09-20T20:19:43.682Z,1.00
2022-09-20T20:22:33.797Z,1.00
2022-09-20T20:25:00.821Z,0.90
2022-09-20T20:27:32.459Z,0.68
2022-09-20T20:29:59.697Z,1.10
2022-09-20T20:32:26.613Z,0.70
2022-09-20T20:34:53.392Z,0.75
2022-09-20T20:37:23.908Z,0.95
2022-09-20T20:39:50.723Z,1.55
2022-09-20T20:42:17.558Z,1.10
2022-09-20T20:44:44.308Z,1.90
2022-09-20T20:47:11.313Z,1.17
2022-09-20T20:49:38.782Z,1.00
2022-09-20T20:52:05.789Z,2.47
2022-09-20T20:54:32.851Z,1.20
2022-09-20T20:56:59.848Z,1.42
2022-09-20T20:59:26.834Z,1.90
2022-09-20T21:01:53.880Z,1.48
2022-09-20T21:04:21.636Z,1.63
2022-09-20T21:06:50.106Z,1.98
2022-09-20T21:09:17.045Z,1.80
2022-09-20T21:11:44.253Z,1.60
2022-09-20T21:14:12.662Z,1.38
2022-09-20T21:16:43.277Z,1.33
2022-09-20T21:19:16.735Z,1.48
2022-09-20T21:21:46.344Z,1.52
2022-09-20T21:24:17.224Z,1.00
2022-09-20T21:26:46.455Z,1.55
2022-09-20T21:29:15.844Z,2.15
2022-09-20T21:31:45.869Z,2.28
2022-09-20T21:34:15.553Z,1.90
2022-09-20T21:36:44.530Z,1.92
2022-09-20T21:39:15.247Z,1.63
2022-09-20T21:41:42.152Z,1.55
2022-09-20T21:44:12.126Z,1.48
2022-09-20T21:46:41.477Z,1.70
2022-09-20T21:49:11.351Z,1.40
2022-09-20T21:51:41.883Z,1.23
2022-09-20T21:54:09.722Z,1.15
2022-09-20T21:56:38.717Z,1.52
2022-09-20T21:59:07.621Z,1.15
2022-09-20T22:01:38.541Z,1.88
2022-09-20T22:04:11.107Z,1.40
2022-09-20T22:06:42.161Z,1.55
2022-09-20T22:09:17.827Z,1.13
2022-09-20T22:11:47.937Z,1.48
2022-09-20T22:14:18.213Z,1.27
2022-09-20T22:16:47.161Z,1.20
2022-09-20T22:19:16.998Z,1.15
2022-09-20T22:21:47.155Z,1.50
2022-09-20T22:24:15.827Z,1.63
2022-09-20T22:26:50.745Z,1.45
2022-09-20T22:29:18.806Z,1.15
2022-09-20T22:31:47.733Z,1.38
2022-09-20T22:34:21.032Z,1.40
2022-09-20T22:36:48.170Z,1.27
2022-09-20T22:39:15.775Z,1.35
2022-09-20T22:41:43.533Z,1.48
2022-09-20T22:44:11.471Z,1.30
2022-09-20T22:46:39.364Z,1.60
2022-09-20T22:49:08.337Z,1.60
2022-09-20T22:51:35.920Z,1.38
2022-09-20T22:54:09.109Z,1.73
2022-09-20T22:56:36.688Z,1.27
2022-09-20T22:59:10.763Z,1.52
2022-09-20T23:01:43.997Z,1.50
2022-09-20T23:04:15.005Z,1.52
2022-09-20T23:09:18.220Z,1.20
2022-09-20T23:11:45.680Z,1.40
2022-09-20T23:14:16.436Z,1.80
2022-09-20T23:16:44.160Z,1.27
2022-09-20T23:19:12.439Z,1.38
2022-09-20T23:21:41.742Z,1.25
2022-09-20T23:24:12.676Z,1.25
2022-09-20T23:29:14.079Z,1.10
2022-09-20T23:31:45.833Z,1.38
2022-09-20T23:34:17.882Z,1.20
2022-09-20T23:36:45.434Z,1.70
2022-09-20T23:39:13.919Z,1.23
2022-09-20T23:41:41.648Z,1.48
2022-09-20T23:44:11.406Z,1.67
2022-09-20T23:46:39.005Z,1.52
2022-09-20T23:49:07.160Z,1.55
2022-09-20T23:51:37.400Z,1.60
2022-09-20T23:54:04.510Z,1.80
2022-09-20T23:56:32.010Z,1.35
2022-09-20T23:58:58.840Z,1.13
